createdAt,value
2023-06-15T00:02:17.429Z,48.27
2023-06-15T00:04:44.071Z,48.63
2023-06-15T00:07:11.108Z,48.69
2023-06-15T00:09:37.544Z,48.98
2023-06-15T00:12:04.201Z,49.28
2023-06-15T00:14:31.278Z,49.76
2023-06-15T00:16:58.901Z,50.10
2023-06-15T00:19:25.593Z,49.65
2023-06-15T00:21:54.608Z,49.78
2023-06-15T00:24:21.893Z,49.86
2023-06-15T00:26:48.427Z,50.03
2023-06-15T00:29:15.178Z,50.24
2023-06-15T00:31:41.668Z,50.70
2023-06-15T00:34:08.098Z,50.97
2023-06-15T00:36:34.585Z,51.42
2023-06-15T00:39:01.083Z,51.44
2023-06-15T00:41:27.576Z,51.64
2023-06-15T00:43:54.045Z,51.24
2023-06-15T00:46:21.379Z,51.24
2023-06-15T00:48:48.257Z,51.08
2023-06-15T00:51:15.160Z,51.32
2023-06-15T00:53:44.863Z,51.34
2023-06-15T00:56:11.803Z,51.44
2023-06-15T00:58:38.485Z,51.93
2023-06-15T01:01:05.038Z,51.88
2023-06-15T01:03:32.364Z,52.16
2023-06-15T01:06:01.021Z,52.39
2023-06-15T01:08:28.193Z,52.39
2023-06-15T01:10:57.353Z,52.66
2023-06-15T01:13:23.967Z,52.85
2023-06-15T01:15:54.394Z,53.60
2023-06-15T01:18:22.420Z,53.47
2023-06-15T01:20:51.266Z,53.24
2023-06-15T01:23:50.844Z,53.42
2023-06-15T01:26:19.670Z,53.73
2023-06-15T01:28:48.888Z,53.57
2023-06-15T01:31:15.890Z,54.52
2023-06-15T01:33:50.123Z,54.11
2023-06-15T01:36:16.820Z,54.73
2023-06-15T01:38:46.525Z,54.33
2023-06-15T01:41:13.854Z,54.41
2023-06-15T01:43:41.066Z,54.74
2023-06-15T01:46:07.942Z,54.98
2023-06-15T01:48:34.714Z,55.44
2023-06-15T01:51:03.214Z,55.41
2023-06-15T01:53:29.705Z,55.25
2023-06-15T01:55:57.593Z,55.82
2023-06-15T01:58:24.183Z,55.78
2023-06-15T02:00:50.798Z,55.87
2023-06-15T02:03:17.475Z,55.90
2023-06-15T02:05:44.044Z,55.87
2023-06-15T02:08:12.081Z,55.97
2023-06-15T02:10:38.972Z,56.85
2023-06-15T02:13:11.560Z,56.81
2023-06-15T02:15:38.224Z,56.81
2023-06-15T02:18:13.389Z,56.82
2023-06-15T02:20:44.435Z,57.22
2023-06-15T02:23:14.859Z,57.12
2023-06-15T02:25:41.452Z,57.53
2023-06-15T02:28:07.991Z,57.11
2023-06-15T02:30:34.463Z,57.25
2023-06-15T02:33:02.298Z,57.58
2023-06-15T02:35:29.371Z,57.52
2023-06-15T02:37:56.492Z,57.52
2023-06-15T02:40:23.380Z,57.61
2023-06-15T02:42:49.801Z,57.48
2023-06-15T02:45:17.068Z,57.65
2023-06-15T02:47:43.808Z,57.42
2023-06-15T02:50:10.774Z,57.92
2023-06-15T02:52:38.143Z,57.58
2023-06-15T02:55:05.300Z,57.37
2023-06-15T02:57:31.748Z,57.31
2023-06-15T02:59:58.250Z,57.46
2023-06-15T03:02:24.842Z,56.97
2023-06-15T03:04:51.732Z,57.07
2023-06-15T03:07:21.634Z,56.79
2023-06-15T03:09:49.201Z,57.10
2023-06-15T03:12:16.571Z,56.99
2023-06-15T03:14:45.513Z,57.04
2023-06-15T03:17:14.347Z,57.02
2023-06-15T03:19:41.460Z,57.02
2023-06-15T03:22:10.956Z,57.04
2023-06-15T03:24:37.766Z,57.17
2023-06-15T03:27:07.821Z,57.31
2023-06-15T03:29:37.943Z,57.46
2023-06-15T03:32:08.718Z,57.43
2023-06-15T03:34:39.188Z,57.63
2023-06-15T03:37:06.857Z,57.78
2023-06-15T03:39:33.569Z,57.34
2023-06-15T03:42:00.063Z,57.14
2023-06-15T03:44:26.894Z,57.37
2023-06-15T03:46:53.394Z,57.49
2023-06-15T03:49:19.847Z,57.43
2023-06-15T03:51:46.656Z,57.66
2023-06-15T03:54:13.063Z,57.86
2023-06-15T03:56:40.221Z,57.18
2023-06-15T03:59:06.702Z,57.38
2023-06-15T04:01:34.064Z,57.38
2023-06-15T04:04:00.745Z,57.47
2023-06-15T04:06:27.621Z,57.24
2023-06-15T04:08:56.272Z,57.09
2023-06-15T04:11:23.187Z,57.25
2023-06-15T04:13:49.784Z,57.26
2023-06-15T04:16:16.735Z,56.74
2023-06-15T04:18:43.232Z,56.94
2023-06-15T04:21:09.637Z,57.32
2023-06-15T04:23:36.315Z,57.05
2023-06-15T04:26:04.323Z,56.74
2023-06-15T04:28:31.712Z,56.76
2023-06-15T04:31:11.587Z,56.26
2023-06-15T04:33:43.399Z,54.90
2023-06-15T04:36:14.928Z,52.85
2023-06-15T04:38:47.661Z,50.43
2023-06-15T04:41:16.125Z,48.23
2023-06-15T04:43:42.969Z,46.44
2023-06-15T04:46:09.956Z,44.65
2023-06-15T04:48:36.501Z,43.82
2023-06-15T04:51:03.088Z,42.71
2023-06-15T04:53:29.595Z,42.05
2023-06-15T04:55:56.105Z,41.03
2023-06-15T04:58:22.688Z,40.43
2023-06-15T05:00:49.092Z,40.03
2023-06-15T05:03:18.429Z,39.21
2023-06-15T05:05:45.740Z,38.80
2023-06-15T05:08:14.953Z,38.80
2023-06-15T05:10:46.281Z,39.25
2023-06-15T05:13:13.780Z,38.34
2023-06-15T05:15:40.313Z,38.57
2023-06-15T05:18:07.018Z,37.36
2023-06-15T05:20:33.598Z,37.67
2023-06-15T05:23:00.042Z,37.51
2023-06-15T05:25:26.599Z,36.15
2023-06-15T05:27:53.103Z,36.33
2023-06-15T05:30:19.978Z,35.70
2023-06-15T05:32:46.419Z,35.50
2023-06-15T05:35:13.021Z,36.39
2023-06-15T05:37:40.012Z,36.06
2023-06-15T05:40:07.009Z,37.67
2023-06-15T05:42:33.467Z,39.78
2023-06-15T05:45:00.005Z,41.28
2023-06-15T05:47:26.723Z,42.45
2023-06-15T05:49:53.213Z,43.45
2023-06-15T05:52:20.303Z,44.41
2023-06-15T05:54:46.691Z,45.96
2023-06-15T05:57:14.046Z,46.33
2023-06-15T05:59:40.942Z,46.58
2023-06-15T06:02:08.590Z,47.20
2023-06-15T06:04:35.577Z,47.72
2023-06-15T06:07:06.242Z,47.83
2023-06-15T06:09:34.247Z,48.45
2023-06-15T06:12:01.904Z,48.62
2023-06-15T06:14:29.268Z,48.77
2023-06-15T06:16:58.815Z,49.40
2023-06-15T06:19:25.770Z,49.34
2023-06-15T06:21:52.319Z,49.30
2023-06-15T06:24:22.029Z,48.87
2023-06-15T06:26:50.109Z,48.63
2023-06-15T06:29:16.737Z,46.91
2023-06-15T06:31:44.205Z,45.08
2023-06-15T06:34:11.863Z,43.47
2023-06-15T06:36:38.624Z,43.15
2023-06-15T06:39:05.113Z,42.72
2023-06-15T06:41:31.935Z,41.59
2023-06-15T06:43:58.388Z,39.61
2023-06-15T06:46:25.073Z,37.63
2023-06-15T06:48:51.652Z,35.21
2023-06-15T06:51:18.425Z,33.19
2023-06-15T06:53:45.393Z,31.68
2023-06-15T06:56:11.919Z,30.78
2023-06-15T06:58:38.379Z,30.45
2023-06-15T07:01:04.840Z,29.91
2023-06-15T07:03:31.458Z,30.38
2023-06-15T07:05:59.385Z,30.77
2023-06-15T07:08:26.003Z,30.33
2023-06-15T07:10:52.621Z,31.58
2023-06-15T07:13:19.078Z,30.75
2023-06-15T07:15:45.569Z,29.97
2023-06-15T07:18:15.534Z,29.00
2023-06-15T07:20:42.598Z,28.76
2023-06-15T07:23:08.943Z,29.29
2023-06-15T07:25:35.543Z,28.92
2023-06-15T07:28:02.721Z,28.61
2023-06-15T07:30:30.527Z,29.78
2023-06-15T07:32:57.180Z,29.68
2023-06-15T07:35:23.810Z,29.28
2023-06-15T07:37:50.318Z,29.77
2023-06-15T07:40:17.266Z,29.60
2023-06-15T07:42:44.052Z,30.60
2023-06-15T07:45:14.228Z,30.29
2023-06-15T07:47:42.901Z,29.45
2023-06-15T07:54:10.936Z,30.09
2023-06-15T07:56:37.885Z,30.38
2023-06-15T08:03:05.716Z,31.42
2023-06-15T08:05:32.380Z,30.94
2023-06-15T08:08:10.952Z,30.03
2023-06-15T08:17:40.099Z,29.93
2023-06-15T08:24:34.551Z,29.47
2023-06-15T08:30:09.231Z,29.18
2023-06-15T08:32:36.130Z,29.34
2023-06-15T08:35:02.681Z,29.88
2023-06-15T08:37:29.823Z,28.62
2023-06-15T08:39:57.810Z,28.30
2023-06-15T08:42:26.982Z,29.25
2023-06-15T08:44:55.740Z,28.61
2023-06-15T08:47:23.244Z,28.60
2023-06-15T08:55:37.784Z,27.27
2023-06-15T09:02:47.748Z,29.11
2023-06-15T09:05:36.414Z,27.78
2023-06-15T09:08:38.288Z,25.82
2023-06-15T09:11:09.612Z,26.30
2023-06-15T09:13:36.766Z,25.51
2023-06-15T09:16:10.292Z,25.28
2023-06-15T09:18:48.121Z,24.60
2023-06-15T09:21:16.599Z,23.98
2023-06-15T09:23:45.994Z,24.76
2023-06-15T09:26:24.602Z,25.64
2023-06-15T09:45:31.048Z,23.95
2023-06-15T09:56:53.712Z,22.40
2023-06-15T09:59:21.366Z,21.82
2023-06-15T10:01:50.512Z,22.96
2023-06-15T10:15:38.505Z,24.51
2023-06-15T10:26:36.535Z,25.42
2023-06-15T10:29:14.027Z,26.57
2023-06-15T10:31:52.390Z,26.58
2023-06-15T10:34:42.081Z,24.68
2023-06-15T10:37:25.233Z,24.78
2023-06-15T10:39:56.797Z,24.41
2023-06-15T10:42:27.100Z,23.70
2023-06-15T10:44:53.720Z,21.90
2023-06-15T10:47:23.920Z,23.34
2023-06-15T10:49:52.512Z,25.13
2023-06-15T10:52:22.827Z,24.17
2023-06-15T10:54:54.921Z,22.86
2023-06-15T10:57:36.882Z,22.21
2023-06-15T11:06:28.296Z,22.67
2023-06-15T11:09:06.475Z,21.67
2023-06-15T11:11:54.767Z,22.22
2023-06-15T11:14:28.177Z,21.84
2023-06-15T11:17:04.480Z,20.81
2023-06-15T11:19:31.749Z,21.18
2023-06-15T11:22:07.051Z,21.31
2023-06-15T11:24:39.225Z,20.50
2023-06-15T11:27:10.132Z,20.76
2023-06-15T11:29:40.105Z,20.57
2023-06-15T11:32:08.562Z,20.72
2023-06-15T11:34:39.461Z,20.72
2023-06-15T11:37:09.154Z,21.08
2023-06-15T11:39:36.684Z,20.57
2023-06-15T11:42:05.340Z,20.77
2023-06-15T11:44:32.040Z,19.58
2023-06-15T11:47:18.387Z,21.23
2023-06-15T11:50:09.198Z,20.22
2023-06-15T11:52:36.405Z,21.60
2023-06-15T11:55:11.166Z,21.08
2023-06-15T11:57:40.001Z,21.76
2023-06-15T12:00:09.389Z,21.69
2023-06-15T12:02:36.350Z,22.07
2023-06-15T12:05:03.925Z,22.01
2023-06-15T12:07:38.595Z,21.62
2023-06-15T12:10:08.184Z,21.71
2023-06-15T12:12:36.519Z,22.16
2023-06-15T12:15:04.705Z,22.32
2023-06-15T12:17:34.671Z,21.76
2023-06-15T12:20:10.774Z,20.78
2023-06-15T12:22:42.079Z,19.14
2023-06-15T12:25:09.325Z,20.33
2023-06-15T12:27:52.924Z,20.27
2023-06-15T12:30:22.227Z,20.03
2023-06-15T12:32:50.502Z,20.72
2023-06-15T12:35:39.417Z,21.30
2023-06-15T12:38:10.812Z,21.18
2023-06-15T12:40:41.279Z,20.91
2023-06-15T12:43:08.479Z,20.09
2023-06-15T12:45:35.035Z,18.92
2023-06-15T12:48:02.403Z,18.54
2023-06-15T12:50:32.764Z,19.51
2023-06-15T12:53:00.729Z,19.36
2023-06-15T12:55:28.065Z,20.06
2023-06-15T12:57:56.136Z,20.67
2023-06-15T13:00:27.411Z,20.59
2023-06-15T13:02:54.969Z,21.65
2023-06-15T13:05:21.880Z,22.25
2023-06-15T13:07:48.845Z,22.16
2023-06-15T13:10:16.295Z,22.70
2023-06-15T13:12:44.449Z,22.00
2023-06-15T13:15:11.619Z,22.57
2023-06-15T13:17:38.548Z,21.27
2023-06-15T13:20:06.529Z,22.03
2023-06-15T13:22:33.240Z,21.80
2023-06-15T13:25:00.079Z,22.74
2023-06-15T13:27:26.749Z,23.25
2023-06-15T13:29:53.653Z,23.54
2023-06-15T13:32:20.518Z,21.96
2023-06-15T13:34:46.967Z,21.88
2023-06-15T13:37:17.339Z,21.98
2023-06-15T13:39:44.610Z,21.12
2023-06-15T13:42:12.852Z,22.13
2023-06-15T13:44:39.542Z,22.08
2023-06-15T13:47:08.095Z,23.06
2023-06-15T13:49:34.751Z,23.62
2023-06-15T13:52:01.886Z,24.25
2023-06-15T13:54:28.440Z,24.32
2023-06-15T13:56:56.137Z,23.49
2023-06-15T13:59:22.740Z,23.69
2023-06-15T14:01:49.370Z,22.67
2023-06-15T14:04:16.090Z,21.59
2023-06-15T14:06:42.697Z,22.01
2023-06-15T14:09:09.182Z,21.65
2023-06-15T14:11:36.660Z,20.03
2023-06-15T14:14:03.233Z,20.79
2023-06-15T14:16:30.007Z,22.19
2023-06-15T14:18:58.364Z,22.67
2023-06-15T14:21:25.245Z,23.18
2023-06-15T14:23:51.807Z,22.56
2023-06-15T14:26:18.428Z,22.96
2023-06-15T14:28:44.901Z,21.09
2023-06-15T14:31:11.496Z,21.24
2023-06-15T14:33:38.112Z,20.51
2023-06-15T14:36:05.002Z,21.13
2023-06-15T14:38:31.482Z,20.39
2023-06-15T14:40:58.299Z,20.86
2023-06-15T14:43:24.764Z,20.37
2023-06-15T14:45:51.308Z,20.48
2023-06-15T14:48:17.950Z,19.68
2023-06-15T14:50:44.367Z,19.11
2023-06-15T14:53:10.795Z,20.15
2023-06-15T14:55:38.313Z,20.12
2023-06-15T14:58:05.118Z,20.27
2023-06-15T15:00:31.578Z,20.63
2023-06-15T15:02:58.154Z,20.28
2023-06-15T15:05:24.777Z,20.02
2023-06-15T15:07:51.757Z,19.94
2023-06-15T15:10:19.008Z,20.70
2023-06-15T15:12:48.106Z,20.22
2023-06-15T15:15:14.818Z,20.23
2023-06-15T15:17:43.308Z,20.15
2023-06-15T15:20:10.580Z,20.22
2023-06-15T15:22:38.682Z,20.78
2023-06-15T15:25:05.389Z,20.62
2023-06-15T15:27:31.815Z,21.49
2023-06-15T15:29:58.414Z,20.54
2023-06-15T15:32:24.919Z,21.23
2023-06-15T15:34:51.663Z,20.92
2023-06-15T15:37:18.581Z,20.96
2023-06-15T15:39:44.986Z,21.32
2023-06-15T15:42:11.963Z,22.28
2023-06-15T15:44:38.849Z,21.23
2023-06-15T15:47:06.125Z,21.71
2023-06-15T15:49:32.721Z,21.71
2023-06-15T15:51:59.201Z,21.59
2023-06-15T15:54:25.839Z,22.10
2023-06-15T15:56:52.374Z,22.79
2023-06-15T15:59:22.686Z,22.45
2023-06-15T16:01:49.688Z,22.08
2023-06-15T16:04:16.278Z,22.58
2023-06-15T16:06:42.732Z,21.99
2023-06-15T16:09:09.504Z,21.43
2023-06-15T16:11:36.714Z,21.14
2023-06-15T16:14:05.115Z,22.17
2023-06-15T16:16:31.659Z,22.25
2023-06-15T16:18:58.206Z,22.33
2023-06-15T16:21:25.825Z,21.99
2023-06-15T16:23:52.338Z,21.81
2023-06-15T16:26:18.790Z,21.28
2023-06-15T16:28:45.555Z,22.30
2023-06-15T16:31:12.062Z,23.04
2023-06-15T16:33:38.487Z,22.43
2023-06-15T16:36:05.171Z,22.77
2023-06-15T16:38:31.749Z,23.01
2023-06-15T16:40:58.187Z,23.13
2023-06-15T16:43:24.668Z,22.53
2023-06-15T16:45:51.238Z,23.29
2023-06-15T16:48:17.754Z,23.09
2023-06-15T16:50:44.280Z,22.87
2023-06-15T16:53:13.033Z,22.76
2023-06-15T16:55:40.436Z,22.72
2023-06-15T16:58:06.895Z,23.47
2023-06-15T17:00:33.533Z,23.01
2023-06-15T17:03:00.306Z,22.24
2023-06-15T17:05:26.992Z,22.33
2023-06-15T17:07:53.649Z,21.66
2023-06-15T17:10:20.611Z,21.47
2023-06-15T17:12:47.273Z,21.39
2023-06-15T17:15:13.822Z,21.69
2023-06-15T17:17:40.349Z,21.00
2023-06-15T17:20:07.370Z,20.57
2023-06-15T17:22:34.462Z,21.47
2023-06-15T17:25:01.499Z,22.00
2023-06-15T17:27:28.171Z,21.33
2023-06-15T17:29:54.612Z,21.99
2023-06-15T17:32:21.475Z,21.44
2023-06-15T17:34:47.965Z,21.71
2023-06-15T17:37:14.370Z,22.07
2023-06-15T17:39:40.823Z,23.03
2023-06-15T17:42:07.546Z,22.88
2023-06-15T17:44:34.076Z,22.86
2023-06-15T17:47:01.091Z,22.56
2023-06-15T17:49:27.612Z,22.20
2023-06-15T17:51:54.039Z,22.75
2023-06-15T17:54:20.708Z,22.47
2023-06-15T17:56:47.267Z,22.55
2023-06-15T17:59:13.829Z,22.47
2023-06-15T18:01:40.389Z,23.02
2023-06-15T18:04:07.399Z,23.16
2023-06-15T18:06:34.072Z,23.20
2023-06-15T18:09:00.635Z,23.10
2023-06-15T18:11:27.148Z,23.30
2023-06-15T18:13:54.773Z,23.49
2023-06-15T18:16:21.374Z,23.67
2023-06-15T18:18:47.923Z,24.33
2023-06-15T18:21:14.455Z,24.49
2023-06-15T18:23:41.033Z,24.76
2023-06-15T18:26:09.905Z,24.68
2023-06-15T18:28:36.551Z,24.33
2023-06-15T18:31:03.423Z,24.80
2023-06-15T18:33:29.851Z,25.54
2023-06-15T18:35:56.450Z,25.23
2023-06-15T18:38:23.150Z,25.23
2023-06-15T18:40:49.775Z,25.09
2023-06-15T18:43:16.391Z,25.28
2023-06-15T18:45:43.031Z,25.25
2023-06-15T18:48:09.659Z,25.44
2023-06-15T18:50:36.202Z,25.56
2023-06-15T18:53:03.788Z,25.39
2023-06-15T18:55:30.376Z,25.83
2023-06-15T18:57:56.978Z,25.32
2023-06-15T19:00:23.467Z,25.71
2023-06-15T19:02:50.180Z,25.70
2023-06-15T19:05:16.845Z,26.18
2023-06-15T19:07:44.528Z,26.14
2023-06-15T19:10:13.274Z,26.65
2023-06-15T19:12:40.317Z,26.72
2023-06-15T19:15:09.143Z,27.25
2023-06-15T19:17:37.379Z,27.79
2023-06-15T19:20:04.766Z,27.55
2023-06-15T19:22:31.258Z,27.81
2023-06-15T19:24:57.741Z,27.78
2023-06-15T19:27:25.608Z,28.01
2023-06-15T19:29:52.196Z,28.30
2023-06-15T19:32:18.744Z,28.81
2023-06-15T19:34:45.232Z,29.57
2023-06-15T19:37:11.673Z,29.54
2023-06-15T19:39:38.207Z,29.63
2023-06-15T19:42:05.341Z,29.74
2023-06-15T19:44:31.841Z,30.04
2023-06-15T19:46:58.987Z,30.38
2023-06-15T19:49:29.707Z,30.41
2023-06-15T19:51:58.086Z,30.43
2023-06-15T19:54:24.675Z,30.47
2023-06-15T19:56:51.140Z,30.81
2023-06-15T19:59:19.912Z,31.02
2023-06-15T20:01:46.601Z,31.14
2023-06-15T20:04:13.407Z,31.35
2023-06-15T20:06:39.975Z,31.39
2023-06-15T20:09:06.641Z,31.06
2023-06-15T20:11:33.091Z,31.29
2023-06-15T20:14:00.595Z,31.74
2023-06-15T20:16:27.084Z,31.40
2023-06-15T20:18:55.792Z,31.42
2023-06-15T20:21:24.442Z,31.71
2023-06-15T20:23:50.989Z,31.15
2023-06-15T20:26:17.853Z,30.93
2023-06-15T20:28:44.530Z,30.60
2023-06-15T20:31:11.453Z,30.64
2023-06-15T20:33:38.962Z,30.69
2023-06-15T20:36:06.646Z,30.54
2023-06-15T20:38:35.713Z,30.15
2023-06-15T20:41:05.153Z,30.29
2023-06-15T20:43:32.429Z,30.77
2023-06-15T20:46:00.369Z,30.71
2023-06-15T20:48:29.413Z,30.80
2023-06-15T20:50:56.493Z,31.22
2023-06-15T20:53:23.787Z,31.05
2023-06-15T20:55:50.406Z,31.19
2023-06-15T20:58:17.236Z,31.56
2023-06-15T21:00:44.302Z,31.29
2023-06-15T21:03:11.768Z,31.72
2023-06-15T21:05:38.384Z,31.79
2023-06-15T21:08:05.411Z,32.12
2023-06-15T21:10:32.204Z,32.46
2023-06-15T21:12:58.874Z,32.97
2023-06-15T21:15:25.328Z,32.96
2023-06-15T21:17:51.817Z,32.60
2023-06-15T21:20:18.556Z,33.15
2023-06-15T21:25:12.416Z,33.55
2023-06-15T21:27:38.867Z,33.70
2023-06-15T21:30:08.007Z,33.71
2023-06-15T21:32:35.318Z,33.95
2023-06-15T21:35:01.935Z,34.39
2023-06-15T21:37:28.373Z,34.68
2023-06-15T21:39:54.809Z,34.88
2023-06-15T21:42:21.338Z,34.93
2023-06-15T21:44:52.131Z,35.08
2023-06-15T21:47:19.563Z,35.91
2023-06-15T21:49:46.074Z,35.78
2023-06-15T21:52:16.169Z,35.98
2023-06-15T21:54:43.371Z,36.44
2023-06-15T21:57:13.166Z,37.18
2023-06-15T21:59:43.891Z,37.59
2023-06-15T22:02:10.959Z,38.00
2023-06-15T22:04:38.096Z,38.29
2023-06-15T22:07:05.404Z,38.87
2023-06-15T22:09:34.097Z,39.12
2023-06-15T22:12:02.100Z,39.53
2023-06-15T22:14:28.792Z,39.35
2023-06-15T22:16:56.673Z,39.63
2023-06-15T22:19:23.421Z,39.69
2023-06-15T22:21:50.098Z,40.25
2023-06-15T22:24:16.801Z,40.15
2023-06-15T22:26:46.317Z,39.71
2023-06-15T22:29:17.779Z,39.64
2023-06-15T22:31:49.794Z,40.52
2023-06-15T22:34:17.133Z,41.13
2023-06-15T22:36:44.228Z,41.32
2023-06-15T22:39:11.580Z,41.58
2023-06-15T22:41:39.112Z,41.87
2023-06-15T22:44:06.317Z,41.93
2023-06-15T22:46:32.837Z,41.74
2023-06-15T22:49:02.462Z,42.18
2023-06-15T22:51:33.963Z,42.35
2023-06-15T22:54:00.857Z,41.89
2023-06-15T22:56:27.700Z,41.99
2023-06-15T22:58:55.953Z,42.72
2023-06-15T23:01:23.008Z,42.78
2023-06-15T23:03:49.924Z,42.60
2023-06-15T23:06:20.291Z,43.01
2023-06-15T23:08:54.349Z,43.14
2023-06-15T23:11:21.535Z,43.41
2023-06-15T23:13:55.065Z,43.87
2023-06-15T23:16:23.245Z,43.68
2023-06-15T23:18:50.117Z,44.26
2023-06-15T23:21:16.615Z,44.70
2023-06-15T23:23:46.512Z,44.86
2023-06-15T23:26:16.072Z,44.18
2023-06-15T23:28:44.401Z,45.80
2023-06-15T23:31:11.112Z,45.49
2023-06-15T23:33:37.605Z,45.93
2023-06-15T23:36:04.888Z,45.60
2023-06-15T23:38:31.838Z,45.20
2023-06-15T23:40:58.546Z,45.23
2023-06-15T23:43:24.981Z,45.26
2023-06-15T23:45:51.888Z,45.06
2023-06-15T23:48:18.676Z,45.11
2023-06-15T23:50:45.261Z,45.21
2023-06-15T23:53:13.061Z,45.25
2023-06-15T23:55:43.985Z,45.33
2023-06-15T23:58:11.454Z,45.70
